sensor_id;sensor_type;location;lat;lon;timestamp;pressure;altitude;pressure_sealevel;temperature
58307;BMP280;44116;50.884;4.768;2023-04-25T00:01:29;100650.0;;;6.6
58307;BMP280;44116;50.884;4.768;2023-04-25T00:03:29;100650.0;;;6.7
58307;BMP280;44116;50.884;4.768;2023-04-25T00:05:29;100650.0;;;6.7
58307;BMP280;44116;50.884;4.768;2023-04-25T00:07:28;100640.0;;;6.6
58307;BMP280;44116;50.884;4.768;2023-04-25T00:09:28;100640.0;;;6.6
58307;BMP280;44116;50.884;4.768;2023-04-25T00:11:28;100640.0;;;6.7
58307;BMP280;44116;50.884;4.768;2023-04-25T00:13:27;100640.0;;;6.6
58307;BMP280;44116;50.884;4.768;2023-04-25T00:15:27;100640.0;;;6.7
58307;BMP280;44116;50.884;4.768;2023-04-25T00:17:27;100650.0;;;6.7
58307;BMP280;44116;50.884;4.768;2023-04-25T00:19:26;100650.0;;;6.6
58307;BMP280;44116;50.884;4.768;2023-04-25T00:21:26;100650.0;;;6.5
58307;BMP280;44116;50.884;4.768;2023-04-25T00:23:25;100650.0;;;6.7
58307;BMP280;44116;50.884;4.768;2023-04-25T00:25:25;100650.0;;;6.7
58307;BMP280;44116;50.884;4.768;2023-04-25T00:29:24;100650.0;;;6.7
58307;BMP280;44116;50.884;4.768;2023-04-25T00:31:24;100640.0;;;6.6
58307;BMP280;44116;50.884;4.768;2023-04-25T00:33:24;100640.0;;;6.7
58307;BMP280;44116;50.884;4.768;2023-04-25T00:35:23;100640.0;;;6.6
58307;BMP280;44116;50.884;4.768;2023-04-25T00:37:23;100640.0;;;6.6
58307;BMP280;44116;50.884;4.768;2023-04-25T00:39:23;100640.0;;;6.7
58307;BMP280;44116;50.884;4.768;2023-04-25T00:43:22;100640.0;;;6.6
58307;BMP280;44116;50.884;4.768;2023-04-25T00:45:22;100640.0;;;6.7
58307;BMP280;44116;50.884;4.768;2023-04-25T00:47:21;100640.0;;;6.7
58307;BMP280;44116;50.884;4.768;2023-04-25T00:49:21;100640.0;;;6.7
58307;BMP280;44116;50.884;4.768;2023-04-25T00:51:21;100640.0;;;6.7
58307;BMP280;44116;50.884;4.768;2023-04-25T00:53:20;100640.0;;;6.7
58307;BMP280;44116;50.884;4.768;2023-04-25T00:55:20;100640.0;;;6.7
58307;BMP280;44116;50.884;4.768;2023-04-25T00:57:19;100640.0;;;6.7
58307;BMP280;44116;50.884;4.768;2023-04-25T00:59:19;100640.0;;;6.7
58307;BMP280;44116;50.884;4.768;2023-04-25T01:01:19;100640.0;;;6.7
58307;BMP280;44116;50.884;4.768;2023-04-25T01:05:18;100640.0;;;6.7
58307;BMP280;44116;50.884;4.768;2023-04-25T01:07:18;100630.0;;;6.7
58307;BMP280;44116;50.884;4.768;2023-04-25T01:09:17;100640.0;;;6.7
58307;BMP280;44116;50.884;4.768;2023-04-25T01:11:17;100640.0;;;6.7
58307;BMP280;44116;50.884;4.768;2023-04-25T01:13:17;100640.0;;;6.7
58307;BMP280;44116;50.884;4.768;2023-04-25T01:15:16;100640.0;;;6.7
58307;BMP280;44116;50.884;4.768;2023-04-25T01:17:17;100640.0;;;6.7
58307;BMP280;44116;50.884;4.768;2023-04-25T01:19:16;100650.0;;;6.7
58307;BMP280;44116;50.884;4.768;2023-04-25T01:21:15;100650.0;;;6.7
58307;BMP280;44116;50.884;4.768;2023-04-25T01:25:14;100650.0;;;6.7
58307;BMP280;44116;50.884;4.768;2023-04-25T01:27:14;100650.0;;;6.7
58307;BMP280;44116;50.884;4.768;2023-04-25T01:29:14;100650.0;;;6.6
58307;BMP280;44116;50.884;4.768;2023-04-25T01:31:13;100650.0;;;6.6
58307;BMP280;44116;50.884;4.768;2023-04-25T01:35:13;100650.0;;;6.6
58307;BMP280;44116;50.884;4.768;2023-04-25T01:37:12;100650.0;;;6.6
58307;BMP280;44116;50.884;4.768;2023-04-25T01:39:12;100650.0;;;6.6
58307;BMP280;44116;50.884;4.768;2023-04-25T01:41:12;100650.0;;;6.5
58307;BMP280;44116;50.884;4.768;2023-04-25T01:43:11;100650.0;;;6.5
58307;BMP280;44116;50.884;4.768;2023-04-25T01:45:11;100650.0;;;6.5
58307;BMP280;44116;50.884;4.768;2023-04-25T01:47:11;100640.0;;;6.4
58307;BMP280;44116;50.884;4.768;2023-04-25T01:49:10;100650.0;;;6.5
58307;BMP280;44116;50.884;4.768;2023-04-25T01:51:10;100650.0;;;6.6
58307;BMP280;44116;50.884;4.768;2023-04-25T01:53:09;100650.0;;;6.5
58307;BMP280;44116;50.884;4.768;2023-04-25T01:57:09;100660.0;;;6.5
58307;BMP280;44116;50.884;4.768;2023-04-25T01:59:08;100660.0;;;6.5
58307;BMP280;44116;50.884;4.768;2023-04-25T02:01:08;100660.0;;;6.5
58307;BMP280;44116;50.884;4.768;2023-04-25T02:03:08;100660.0;;;6.4
58307;BMP280;44116;50.884;4.768;2023-04-25T02:05:07;100660.0;;;6.4
58307;BMP280;44116;50.884;4.768;2023-04-25T02:07:07;100660.0;;;6.3
58307;BMP280;44116;50.884;4.768;2023-04-25T02:09:07;100660.0;;;6.3
58307;BMP280;44116;50.884;4.768;2023-04-25T02:11:06;100660.0;;;6.3
58307;BMP280;44116;50.884;4.768;2023-04-25T02:13:06;100660.0;;;6.4
58307;BMP280;44116;50.884;4.768;2023-04-25T02:15:06;100660.0;;;6.4
58307;BMP280;44116;50.884;4.768;2023-04-25T02:17:05;100660.0;;;6.4
58307;BMP280;44116;50.884;4.768;2023-04-25T02:19:05;100660.0;;;6.3
58307;BMP280;44116;50.884;4.768;2023-04-25T02:21:04;100660.0;;;6.4
58307;BMP280;44116;50.884;4.768;2023-04-25T02:23:04;100660.0;;;6.4
58307;BMP280;44116;50.884;4.768;2023-04-25T02:25:04;100660.0;;;6.4
58307;BMP280;44116;50.884;4.768;2023-04-25T02:29:03;100660.0;;;6.4
58307;BMP280;44116;50.884;4.768;2023-04-25T02:31:03;100660.0;;;6.4
58307;BMP280;44116;50.884;4.768;2023-04-25T02:33:02;100660.0;;;6.3
58307;BMP280;44116;50.884;4.768;2023-04-25T02:37:02;100660.0;;;6.4
58307;BMP280;44116;50.884;4.768;2023-04-25T02:39:01;100670.0;;;6.3
58307;BMP280;44116;50.884;4.768;2023-04-25T02:41:01;100660.0;;;6.3
58307;BMP280;44116;50.884;4.768;2023-04-25T02:43:00;100660.0;;;6.3
58307;BMP280;44116;50.884;4.768;2023-04-25T02:45:00;100660.0;;;6.1
58307;BMP280;44116;50.884;4.768;2023-04-25T02:47:00;100660.0;;;6.1
58307;BMP280;44116;50.884;4.768;2023-04-25T02:48:59;100660.0;;;6.2
58307;BMP280;44116;50.884;4.768;2023-04-25T02:50:59;100660.0;;;6.3
58307;BMP280;44116;50.884;4.768;2023-04-25T02:52:59;100670.0;;;6.2
58307;BMP280;44116;50.884;4.768;2023-04-25T02:54:58;100660.0;;;6.3
58307;BMP280;44116;50.884;4.768;2023-04-25T02:56:58;100660.0;;;6.2
58307;BMP280;44116;50.884;4.768;2023-04-25T02:58:58;100660.0;;;6.2
58307;BMP280;44116;50.884;4.768;2023-04-25T03:00:57;100660.0;;;6.2
58307;BMP280;44116;50.884;4.768;2023-04-25T03:02:57;100660.0;;;6.1
58307;BMP280;44116;50.884;4.768;2023-04-25T03:04:57;100660.0;;;6.2
58307;BMP280;44116;50.884;4.768;2023-04-25T03:06:56;100660.0;;;6.2
58307;BMP280;44116;50.884;4.768;2023-04-25T03:08:56;100660.0;;;6.1
58307;BMP280;44116;50.884;4.768;2023-04-25T03:10:56;100660.0;;;6.2
58307;BMP280;44116;50.884;4.768;2023-04-25T03:12:55;100660.0;;;6.1
58307;BMP280;44116;50.884;4.768;2023-04-25T03:14:55;100660.0;;;6.1
58307;BMP280;44116;50.884;4.768;2023-04-25T03:16:54;100660.0;;;6.1
58307;BMP280;44116;50.884;4.768;2023-04-25T03:20:54;100660.0;;;6.1
58307;BMP280;44116;50.884;4.768;2023-04-25T03:22:53;100660.0;;;6.1
58307;BMP280;44116;50.884;4.768;2023-04-25T03:24:53;100660.0;;;6.0
58307;BMP280;44116;50.884;4.768;2023-04-25T03:26:53;100670.0;;;6.1
58307;BMP280;44116;50.884;4.768;2023-04-25T03:28:52;100670.0;;;6.0
58307;BMP280;44116;50.884;4.768;2023-04-25T03:30:52;100670.0;;;6.1
58307;BMP280;44116;50.884;4.768;2023-04-25T03:32:52;100670.0;;;6.1
58307;BMP280;44116;50.884;4.768;2023-04-25T03:34:51;100670.0;;;6.1
58307;BMP280;44116;50.884;4.768;2023-04-25T03:36:51;100670.0;;;6.0
58307;BMP280;44116;50.884;4.768;2023-04-25T03:38:50;100670.0;;;6.1
58307;BMP280;44116;50.884;4.768;2023-04-25T03:40:51;100670.0;;;6.0
58307;BMP280;44116;50.884;4.768;2023-04-25T03:42:50;100670.0;;;6.1
58307;BMP280;44116;50.884;4.768;2023-04-25T03:44:49;100670.0;;;6.1
58307;BMP280;44116;50.884;4.768;2023-04-25T03:46:49;100680.0;;;6.1
58307;BMP280;44116;50.884;4.768;2023-04-25T03:48:48;100680.0;;;5.9
58307;BMP280;44116;50.884;4.768;2023-04-25T03:52:48;100690.0;;;5.8
58307;BMP280;44116;50.884;4.768;2023-04-25T03:54:47;100680.0;;;5.8
58307;BMP280;44116;50.884;4.768;2023-04-25T03:56:47;100680.0;;;5.9
58307;BMP280;44116;50.884;4.768;2023-04-25T03:58:47;100690.0;;;5.9
58307;BMP280;44116;50.884;4.768;2023-04-25T04:00:46;100690.0;;;5.8
58307;BMP280;44116;50.884;4.768;2023-04-25T04:02:46;100690.0;;;5.7
58307;BMP280;44116;50.884;4.768;2023-04-25T04:04:45;100700.0;;;5.7
58307;BMP280;44116;50.884;4.768;2023-04-25T04:08:45;100700.0;;;5.6
58307;BMP280;44116;50.884;4.768;2023-04-25T04:10:44;100700.0;;;5.7
58307;BMP280;44116;50.884;4.768;2023-04-25T04:12:44;100690.0;;;5.7
58307;BMP280;44116;50.884;4.768;2023-04-25T04:14:44;100700.0;;;5.7
58307;BMP280;44116;50.884;4.768;2023-04-25T04:16:43;100700.0;;;5.6
58307;BMP280;44116;50.884;4.768;2023-04-25T04:18:43;100700.0;;;5.5
58307;BMP280;44116;50.884;4.768;2023-04-25T04:20:42;100700.0;;;5.7
58307;BMP280;44116;50.884;4.768;2023-04-25T04:22:42;100710.0;;;5.6
58307;BMP280;44116;50.884;4.768;2023-04-25T04:24:42;100700.0;;;5.6
58307;BMP280;44116;50.884;4.768;2023-04-25T04:26:41;100710.0;;;5.6
58307;BMP280;44116;50.884;4.768;2023-04-25T04:28:41;100710.0;;;5.6
58307;BMP280;44116;50.884;4.768;2023-04-25T04:30:40;100710.0;;;5.6
58307;BMP280;44116;50.884;4.768;2023-04-25T04:32:40;100710.0;;;5.7
58307;BMP280;44116;50.884;4.768;2023-04-25T04:34:40;100710.0;;;5.6
58307;BMP280;44116;50.884;4.768;2023-04-25T04:36:39;100710.0;;;5.6
58307;BMP280;44116;50.884;4.768;2023-04-25T04:38:39;100710.0;;;5.5
58307;BMP280;44116;50.884;4.768;2023-04-25T04:40:38;100710.0;;;5.5
58307;BMP280;44116;50.884;4.768;2023-04-25T04:42:38;100720.0;;;5.6
58307;BMP280;44116;50.884;4.768;2023-04-25T04:44:38;100720.0;;;5.6
58307;BMP280;44116;50.884;4.768;2023-04-25T04:46:37;100720.0;;;5.6
58307;BMP280;44116;50.884;4.768;2023-04-25T04:48:37;100720.0;;;5.5
58307;BMP280;44116;50.884;4.768;2023-04-25T04:50:37;100720.0;;;5.6
58307;BMP280;44116;50.884;4.768;2023-04-25T04:52:36;100730.0;;;5.6
58307;BMP280;44116;50.884;4.768;2023-04-25T04:54:36;100730.0;;;5.6
58307;BMP280;44116;50.884;4.768;2023-04-25T04:56:35;100730.0;;;5.7
58307;BMP280;44116;50.884;4.768;2023-04-25T04:58:35;100740.0;;;5.7
58307;BMP280;44116;50.884;4.768;2023-04-25T05:00:35;100730.0;;;5.6
58307;BMP280;44116;50.884;4.768;2023-04-25T05:02:34;100730.0;;;5.6
58307;BMP280;44116;50.884;4.768;2023-04-25T05:04:34;100730.0;;;5.5
58307;BMP280;44116;50.884;4.768;2023-04-25T05:06:33;100740.0;;;5.5
58307;BMP280;44116;50.884;4.768;2023-04-25T05:08:33;100740.0;;;5.6
58307;BMP280;44116;50.884;4.768;2023-04-25T05:10:33;100740.0;;;5.7
58307;BMP280;44116;50.884;4.768;2023-04-25T05:12:32;100740.0;;;5.6
58307;BMP280;44116;50.884;4.768;2023-04-25T05:14:32;100750.0;;;5.7
58307;BMP280;44116;50.884;4.768;2023-04-25T05:16:31;100750.0;;;5.6
58307;BMP280;44116;50.884;4.768;2023-04-25T05:18:31;100750.0;;;5.7
58307;BMP280;44116;50.884;4.768;2023-04-25T05:20:31;100750.0;;;5.7
58307;BMP280;44116;50.884;4.768;2023-04-25T05:22:30;100750.0;;;5.7
58307;BMP280;44116;50.884;4.768;2023-04-25T05:24:30;100760.0;;;5.6
58307;BMP280;44116;50.884;4.768;2023-04-25T05:26:30;100760.0;;;5.6
58307;BMP280;44116;50.884;4.768;2023-04-25T05:28:29;100760.0;;;5.7
58307;BMP280;44116;50.884;4.768;2023-04-25T05:30:29;100770.0;;;5.8
58307;BMP280;44116;50.884;4.768;2023-04-25T05:32:28;100770.0;;;5.8
58307;BMP280;44116;50.884;4.768;2023-04-25T05:34:28;100770.0;;;5.7
58307;BMP280;44116;50.884;4.768;2023-04-25T05:36:28;100780.0;;;5.6
58307;BMP280;44116;50.884;4.768;2023-04-25T05:38:27;100780.0;;;5.7
58307;BMP280;44116;50.884;4.768;2023-04-25T05:40:27;100780.0;;;5.7
58307;BMP280;44116;50.884;4.768;2023-04-25T05:44:26;100780.0;;;5.6
58307;BMP280;44116;50.884;4.768;2023-04-25T05:48:25;100790.0;;;5.6
58307;BMP280;44116;50.884;4.768;2023-04-25T05:50:25;100790.0;;;5.7
58307;BMP280;44116;50.884;4.768;2023-04-25T05:52:24;100790.0;;;5.7
58307;BMP280;44116;50.884;4.768;2023-04-25T05:54:24;100790.0;;;5.6
58307;BMP280;44116;50.884;4.768;2023-04-25T05:56:24;100790.0;;;5.7
58307;BMP280;44116;50.884;4.768;2023-04-25T05:58:23;100800.0;;;5.8
58307;BMP280;44116;50.884;4.768;2023-04-25T06:00:23;100800.0;;;5.8
58307;BMP280;44116;50.884;4.768;2023-04-25T06:02:23;100810.0;;;5.8
58307;BMP280;44116;50.884;4.768;2023-04-25T06:04:22;100810.0;;;5.8
58307;BMP280;44116;50.884;4.768;2023-04-25T06:06:22;100810.0;;;5.8
58307;BMP280;44116;50.884;4.768;2023-04-25T06:08:21;100810.0;;;5.8
58307;BMP280;44116;50.884;4.768;2023-04-25T06:10:21;100810.0;;;5.8
58307;BMP280;44116;50.884;4.768;2023-04-25T06:12:21;100810.0;;;5.8
58307;BMP280;44116;50.884;4.768;2023-04-25T06:14:20;100810.0;;;5.8
58307;BMP280;44116;50.884;4.768;2023-04-25T06:16:20;100810.0;;;5.8
58307;BMP280;44116;50.884;4.768;2023-04-25T06:18:19;100820.0;;;5.8
58307;BMP280;44116;50.884;4.768;2023-04-25T06:20:19;100810.0;;;5.8
58307;BMP280;44116;50.884;4.768;2023-04-25T06:22:19;100810.0;;;5.9
58307;BMP280;44116;50.884;4.768;2023-04-25T06:24:18;100820.0;;;5.9
58307;BMP280;44116;50.884;4.768;2023-04-25T06:26:18;100810.0;;;6.0
58307;BMP280;44116;50.884;4.768;2023-04-25T06:28:18;100810.0;;;6.1
58307;BMP280;44116;50.884;4.768;2023-04-25T06:30:17;100810.0;;;6.1
58307;BMP280;44116;50.884;4.768;2023-04-25T06:32:17;100820.0;;;6.0
58307;BMP280;44116;50.884;4.768;2023-04-25T06:34:16;100820.0;;;6.1
58307;BMP280;44116;50.884;4.768;2023-04-25T06:36:16;100830.0;;;6.1
58307;BMP280;44116;50.884;4.768;2023-04-25T06:38:16;100830.0;;;6.1
58307;BMP280;44116;50.884;4.768;2023-04-25T06:40:15;100830.0;;;6.1
58307;BMP280;44116;50.884;4.768;2023-04-25T06:42:15;100830.0;;;6.1
58307;BMP280;44116;50.884;4.768;2023-04-25T06:44:14;100840.0;;;6.1
58307;BMP280;44116;50.884;4.768;2023-04-25T06:46:14;100840.0;;;6.1
58307;BMP280;44116;50.884;4.768;2023-04-25T06:48:14;100840.0;;;6.2
58307;BMP280;44116;50.884;4.768;2023-04-25T06:50:13;100840.0;;;6.2
58307;BMP280;44116;50.884;4.768;2023-04-25T06:52:13;100840.0;;;6.1
58307;BMP280;44116;50.884;4.768;2023-04-25T06:54:13;100850.0;;;6.2
58307;BMP280;44116;50.884;4.768;2023-04-25T06:56:12;100860.0;;;6.3
58307;BMP280;44116;50.884;4.768;2023-04-25T06:58:12;100860.0;;;6.4
58307;BMP280;44116;50.884;4.768;2023-04-25T07:00:12;100860.0;;;6.3
58307;BMP280;44116;50.884;4.768;2023-04-25T07:02:11;100860.0;;;6.2
58307;BMP280;44116;50.884;4.768;2023-04-25T07:06:10;100870.0;;;6.4
58307;BMP280;44116;50.884;4.768;2023-04-25T07:08:10;100870.0;;;6.4
58307;BMP280;44116;50.884;4.768;2023-04-25T07:10:09;100880.0;;;6.5
58307;BMP280;44116;50.884;4.768;2023-04-25T07:12:09;100880.0;;;6.5
58307;BMP280;44116;50.884;4.768;2023-04-25T07:14:09;100880.0;;;6.6
58307;BMP280;44116;50.884;4.768;2023-04-25T07:16:08;100880.0;;;6.6
58307;BMP280;44116;50.884;4.768;2023-04-25T07:18:08;100880.0;;;6.5
58307;BMP280;44116;50.884;4.768;2023-04-25T07:20:08;100890.0;;;6.5
58307;BMP280;44116;50.884;4.768;2023-04-25T07:22:07;100890.0;;;6.6
58307;BMP280;44116;50.884;4.768;2023-04-25T07:24:07;100890.0;;;6.6
58307;BMP280;44116;50.884;4.768;2023-04-25T07:26:06;100900.0;;;6.6
58307;BMP280;44116;50.884;4.768;2023-04-25T07:28:06;100900.0;;;6.5
58307;BMP280;44116;50.884;4.768;2023-04-25T07:30:06;100900.0;;;6.6
58307;BMP280;44116;50.884;4.768;2023-04-25T07:32:05;100900.0;;;6.6
58307;BMP280;44116;50.884;4.768;2023-04-25T07:34:05;100910.0;;;6.8
58307;BMP280;44116;50.884;4.768;2023-04-25T07:36:05;100910.0;;;6.8
58307;BMP280;44116;50.884;4.768;2023-04-25T07:38:04;100910.0;;;6.9
58307;BMP280;44116;50.884;4.768;2023-04-25T07:40:04;100910.0;;;6.9
58307;BMP280;44116;50.884;4.768;2023-04-25T07:42:04;100910.0;;;6.9
58307;BMP280;44116;50.884;4.768;2023-04-25T07:44:03;100920.0;;;6.9
58307;BMP280;44116;50.884;4.768;2023-04-25T07:46:03;100920.0;;;6.9
58307;BMP280;44116;50.884;4.768;2023-04-25T07:48:02;100920.0;;;7.0
58307;BMP280;44116;50.884;4.768;2023-04-25T07:50:02;100920.0;;;7.1
58307;BMP280;44116;50.884;4.768;2023-04-25T07:52:02;100930.0;;;7.0
58307;BMP280;44116;50.884;4.768;2023-04-25T07:54:01;100930.0;;;7.1
58307;BMP280;44116;50.884;4.768;2023-04-25T07:56:01;100930.0;;;7.1
58307;BMP280;44116;50.884;4.768;2023-04-25T08:00:00;100940.0;;;7.2
58307;BMP280;44116;50.884;4.768;2023-04-25T08:02:00;100940.0;;;7.3
58307;BMP280;44116;50.884;4.768;2023-04-25T08:03:59;100950.0;;;7.2
58307;BMP280;44116;50.884;4.768;2023-04-25T08:05:59;100950.0;;;7.0
58307;BMP280;44116;50.884;4.768;2023-04-25T08:07:59;100950.0;;;7.1
58307;BMP280;44116;50.884;4.768;2023-04-25T08:09:58;100960.0;;;7.0
58307;BMP280;44116;50.884;4.768;2023-04-25T08:11:58;100960.0;;;7.0
58307;BMP280;44116;50.884;4.768;2023-04-25T08:13:58;100960.0;;;7.0
58307;BMP280;44116;50.884;4.768;2023-04-25T08:15:57;100970.0;;;7.0
58307;BMP280;44116;50.884;4.768;2023-04-25T08:17:57;100970.0;;;7.0
58307;BMP280;44116;50.884;4.768;2023-04-25T08:19:57;100980.0;;;7.0
58307;BMP280;44116;50.884;4.768;2023-04-25T08:21:56;100990.0;;;7.0
58307;BMP280;44116;50.884;4.768;2023-04-25T08:23:56;101000.0;;;6.9
58307;BMP280;44116;50.884;4.768;2023-04-25T08:25:55;101000.0;;;7.0
58307;BMP280;44116;50.884;4.768;2023-04-25T08:27:55;101010.0;;;6.8
58307;BMP280;44116;50.884;4.768;2023-04-25T08:31:54;101010.0;;;6.7
58307;BMP280;44116;50.884;4.768;2023-04-25T08:33:54;101020.0;;;6.8
58307;BMP280;44116;50.884;4.768;2023-04-25T08:35:54;101020.0;;;6.7
58307;BMP280;44116;50.884;4.768;2023-04-25T08:37:53;101030.0;;;6.8
58307;BMP280;44116;50.884;4.768;2023-04-25T08:39:53;101030.0;;;6.7
58307;BMP280;44116;50.884;4.768;2023-04-25T08:41:53;101030.0;;;6.7
58307;BMP280;44116;50.884;4.768;2023-04-25T08:43:52;101030.0;;;6.8
58307;BMP280;44116;50.884;4.768;2023-04-25T08:45:52;101040.0;;;6.9
58307;BMP280;44116;50.884;4.768;2023-04-25T08:47:52;101040.0;;;6.8
58307;BMP280;44116;50.884;4.768;2023-04-25T08:49:51;101040.0;;;6.7
58307;BMP280;44116;50.884;4.768;2023-04-25T08:51:51;101040.0;;;6.8
58307;BMP280;44116;50.884;4.768;2023-04-25T08:53:51;101040.0;;;6.9
58307;BMP280;44116;50.884;4.768;2023-04-25T08:55:50;101040.0;;;6.9
58307;BMP280;44116;50.884;4.768;2023-04-25T08:57:50;101040.0;;;7.1
58307;BMP280;44116;50.884;4.768;2023-04-25T08:59:49;101050.0;;;7.0
58307;BMP280;44116;50.884;4.768;2023-04-25T09:03:48;101050.0;;;7.2
58307;BMP280;44116;50.884;4.768;2023-04-25T09:05:48;101050.0;;;7.2
58307;BMP280;44116;50.884;4.768;2023-04-25T09:11:47;101060.0;;;7.2
58307;BMP280;44116;50.884;4.768;2023-04-25T09:13:47;101060.0;;;7.5
58307;BMP280;44116;50.884;4.768;2023-04-25T09:15:47;101060.0;;;7.6
58307;BMP280;44116;50.884;4.768;2023-04-25T09:17:47;101070.0;;;7.9
58307;BMP280;44116;50.884;4.768;2023-04-25T09:19:46;101070.0;;;7.9
58307;BMP280;44116;50.884;4.768;2023-04-25T09:21:48;101080.0;;;8.3
58307;BMP280;44116;50.884;4.768;2023-04-25T09:23:45;101080.0;;;8.2
58307;BMP280;44116;50.884;4.768;2023-04-25T09:25:45;101080.0;;;8.1
58307;BMP280;44116;50.884;4.768;2023-04-25T09:27:52;101080.0;;;8.1
58307;BMP280;44116;50.884;4.768;2023-04-25T09:29:44;101080.0;;;8.2
58307;BMP280;44116;50.884;4.768;2023-04-25T09:31:44;101070.0;;;8.1
58307;BMP280;44116;50.884;4.768;2023-04-25T09:33:43;101080.0;;;8.0
58307;BMP280;44116;50.884;4.768;2023-04-25T09:35:43;101090.0;;;7.7
58307;BMP280;44116;50.884;4.768;2023-04-25T09:37:43;101090.0;;;7.6
58307;BMP280;44116;50.884;4.768;2023-04-25T09:39:42;101090.0;;;7.4
58307;BMP280;44116;50.884;4.768;2023-04-25T09:41:42;101090.0;;;7.4
58307;BMP280;44116;50.884;4.768;2023-04-25T09:43:41;101100.0;;;7.5
58307;BMP280;44116;50.884;4.768;2023-04-25T09:45:41;101090.0;;;7.4
58307;BMP280;44116;50.884;4.768;2023-04-25T09:47:41;101100.0;;;7.4
58307;BMP280;44116;50.884;4.768;2023-04-25T09:49:41;101100.0;;;7.3
58307;BMP280;44116;50.884;4.768;2023-04-25T09:51:40;101100.0;;;7.4
58307;BMP280;44116;50.884;4.768;2023-04-25T09:53:41;101100.0;;;7.4
58307;BMP280;44116;50.884;4.768;2023-04-25T09:55:39;101100.0;;;7.5
58307;BMP280;44116;50.884;4.768;2023-04-25T09:57:39;101110.0;;;7.5
58307;BMP280;44116;50.884;4.768;2023-04-25T09:59:39;101110.0;;;7.4
58307;BMP280;44116;50.884;4.768;2023-04-25T10:01:39;101110.0;;;7.3
58307;BMP280;44116;50.884;4.768;2023-04-25T10:03:39;101110.0;;;7.4
58307;BMP280;44116;50.884;4.768;2023-04-25T10:05:38;101130.0;;;7.5
58307;BMP280;44116;50.884;4.768;2023-04-25T10:07:37;101120.0;;;7.5
58307;BMP280;44116;50.884;4.768;2023-04-25T10:09:37;101120.0;;;7.4
58307;BMP280;44116;50.884;4.768;2023-04-25T10:11:37;101130.0;;;7.5
58307;BMP280;44116;50.884;4.768;2023-04-25T10:13:36;101120.0;;;7.4
58307;BMP280;44116;50.884;4.768;2023-04-25T10:15:36;101120.0;;;7.5
58307;BMP280;44116;50.884;4.768;2023-04-25T10:17:36;101120.0;;;7.5
58307;BMP280;44116;50.884;4.768;2023-04-25T10:19:35;101110.0;;;7.5
58307;BMP280;44116;50.884;4.768;2023-04-25T10:21:35;101110.0;;;7.7
58307;BMP280;44116;50.884;4.768;2023-04-25T10:23:35;101110.0;;;7.8
58307;BMP280;44116;50.884;4.768;2023-04-25T10:25:34;101110.0;;;7.9
58307;BMP280;44116;50.884;4.768;2023-04-25T10:27:34;101110.0;;;8.2
58307;BMP280;44116;50.884;4.768;2023-04-25T10:29:34;101100.0;;;8.1
58307;BMP280;44116;50.884;4.768;2023-04-25T10:31:33;101100.0;;;8.3
58307;BMP280;44116;50.884;4.768;2023-04-25T10:33:33;101100.0;;;8.6
58307;BMP280;44116;50.884;4.768;2023-04-25T10:35:33;101100.0;;;8.7
58307;BMP280;44116;50.884;4.768;2023-04-25T10:37:32;101090.0;;;8.5
58307;BMP280;44116;50.884;4.768;2023-04-25T10:39:32;101090.0;;;8.6
58307;BMP280;44116;50.884;4.768;2023-04-25T10:41:32;101090.0;;;8.8
58307;BMP280;44116;50.884;4.768;2023-04-25T10:43:33;101090.0;;;8.7
58307;BMP280;44116;50.884;4.768;2023-04-25T10:45:31;101090.0;;;8.7
58307;BMP280;44116;50.884;4.768;2023-04-25T10:47:35;101090.0;;;8.5
58307;BMP280;44116;50.884;4.768;2023-04-25T10:49:32;101100.0;;;8.6
58307;BMP280;44116;50.884;4.768;2023-04-25T10:51:30;101090.0;;;8.4
58307;BMP280;44116;50.884;4.768;2023-04-25T10:53:30;101100.0;;;8.7
58307;BMP280;44116;50.884;4.768;2023-04-25T10:55:33;101090.0;;;8.9
58307;BMP280;44116;50.884;4.768;2023-04-25T10:57:30;101090.0;;;9.0
58307;BMP280;44116;50.884;4.768;2023-04-25T10:59:29;101080.0;;;9.2
58307;BMP280;44116;50.884;4.768;2023-04-25T11:01:28;101090.0;;;9.5
58307;BMP280;44116;50.884;4.768;2023-04-25T11:03:28;101090.0;;;9.2
58307;BMP280;44116;50.884;4.768;2023-04-25T11:05:29;101100.0;;;9.4
58307;BMP280;44116;50.884;4.768;2023-04-25T11:07:31;101090.0;;;9.1
58307;BMP280;44116;50.884;4.768;2023-04-25T11:09:27;101080.0;;;8.9
58307;BMP280;44116;50.884;4.768;2023-04-25T11:11:28;101090.0;;;9.2
58307;BMP280;44116;50.884;4.768;2023-04-25T11:13:28;101090.0;;;9.2
58307;BMP280;44116;50.884;4.768;2023-04-25T11:15:26;101100.0;;;9.0
58307;BMP280;44116;50.884;4.768;2023-04-25T11:17:26;101100.0;;;9.1
58307;BMP280;44116;50.884;4.768;2023-04-25T11:21:25;101100.0;;;9.1
58307;BMP280;44116;50.884;4.768;2023-04-25T11:23:25;101100.0;;;9.1
58307;BMP280;44116;50.884;4.768;2023-04-25T11:27:24;101100.0;;;9.2
58307;BMP280;44116;50.884;4.768;2023-04-25T11:29:26;101100.0;;;9.3
58307;BMP280;44116;50.884;4.768;2023-04-25T11:33:24;101100.0;;;9.0
58307;BMP280;44116;50.884;4.768;2023-04-25T11:37:23;101110.0;;;9.3
58307;BMP280;44116;50.884;4.768;2023-04-25T11:39:23;101110.0;;;9.4
58307;BMP280;44116;50.884;4.768;2023-04-25T11:43:22;101110.0;;;9.5
58307;BMP280;44116;50.884;4.768;2023-04-25T11:45:22;101120.0;;;9.7
58307;BMP280;44116;50.884;4.768;2023-04-25T11:47:27;101110.0;;;9.8
58307;BMP280;44116;50.884;4.768;2023-04-25T11:49:21;101110.0;;;9.6
58307;BMP280;44116;50.884;4.768;2023-04-25T11:51:21;101120.0;;;9.6
58307;BMP280;44116;50.884;4.768;2023-04-25T11:53:21;101120.0;;;9.6
58307;BMP280;44116;50.884;4.768;2023-04-25T11:55:20;101110.0;;;9.5
58307;BMP280;44116;50.884;4.768;2023-04-25T11:57:20;101120.0;;;9.7
58307;BMP280;44116;50.884;4.768;2023-04-25T11:59:23;101110.0;;;9.4
58307;BMP280;44116;50.884;4.768;2023-04-25T12:01:24;101120.0;;;9.4
58307;BMP280;44116;50.884;4.768;2023-04-25T12:05:19;101140.0;;;9.2
58307;BMP280;44116;50.884;4.768;2023-04-25T12:07:19;101140.0;;;8.9
58307;BMP280;44116;50.884;4.768;2023-04-25T12:09:19;101140.0;;;8.8
58307;BMP280;44116;50.884;4.768;2023-04-25T12:11:21;101150.0;;;8.9
58307;BMP280;44116;50.884;4.768;2023-04-25T12:13:19;101150.0;;;8.6
58307;BMP280;44116;50.884;4.768;2023-04-25T12:15:18;101150.0;;;8.6
58307;BMP280;44116;50.884;4.768;2023-04-25T12:17:17;101150.0;;;8.5
58307;BMP280;44116;50.884;4.768;2023-04-25T12:19:18;101160.0;;;8.7
58307;BMP280;44116;50.884;4.768;2023-04-25T12:21:17;101150.0;;;8.7
58307;BMP280;44116;50.884;4.768;2023-04-25T12:23:16;101150.0;;;8.6
58307;BMP280;44116;50.884;4.768;2023-04-25T12:27:16;101140.0;;;8.7
58307;BMP280;44116;50.884;4.768;2023-04-25T12:29:16;101150.0;;;9.0
58307;BMP280;44116;50.884;4.768;2023-04-25T12:31:15;101150.0;;;9.1
58307;BMP280;44116;50.884;4.768;2023-04-25T12:33:15;101140.0;;;9.1
58307;BMP280;44116;50.884;4.768;2023-04-25T12:35:15;101140.0;;;9.3
58307;BMP280;44116;50.884;4.768;2023-04-25T12:37:14;101140.0;;;9.3
58307;BMP280;44116;50.884;4.768;2023-04-25T12:39:14;101140.0;;;9.4
58307;BMP280;44116;50.884;4.768;2023-04-25T12:41:14;101130.0;;;9.5